createdAt,value
2022-07-27T00:00:53.753Z,99004.16
2022-07-27T00:03:20.786Z,98998.16
2022-07-27T00:05:47.831Z,99004.28
2022-07-27T00:08:14.878Z,99005.31
2022-07-27T00:10:41.916Z,99005.38
2022-07-27T00:13:08.931Z,98996.69
2022-07-27T00:15:36.029Z,99002.84
2022-07-27T00:18:04.017Z,99006.38
2022-07-27T00:20:31.903Z,98993.59
2022-07-27T00:22:59.109Z,98998.75
2022-07-27T00:25:29.122Z,98991.00
2022-07-27T00:27:57.315Z,98993.81
2022-07-27T00:30:24.751Z,98994.06
2022-07-27T00:32:52.196Z,98988.91
2022-07-27T00:35:19.541Z,98988.97
2022-07-27T00:37:46.660Z,98983.84
2022-07-27T00:40:13.691Z,98992.59
2022-07-27T00:42:40.728Z,98996.81
2022-07-27T00:45:08.353Z,98988.31
2022-07-27T00:47:35.362Z,98995.25
2022-07-27T00:50:02.518Z,99001.38
2022-07-27T00:52:29.548Z,98998.84
2022-07-27T00:54:56.569Z,98991.94
2022-07-27T00:57:23.749Z,98981.72
2022-07-27T00:59:50.741Z,98993.84
2022-07-27T01:02:19.394Z,98995.69
2022-07-27T01:04:47.526Z,99002.75
2022-07-27T01:07:15.110Z,99001.97
2022-07-27T01:09:57.121Z,99002.91
2022-07-27T01:12:31.641Z,99001.41
2022-07-27T01:14:59.183Z,98992.84
2022-07-27T01:17:27.010Z,98991.97
2022-07-27T01:19:54.097Z,98997.41
2022-07-27T01:22:21.178Z,99000.03
2022-07-27T01:24:49.099Z,99006.00
2022-07-27T01:27:16.201Z,99008.00
2022-07-27T01:29:43.452Z,99007.16
2022-07-27T01:32:10.706Z,99012.38
2022-07-27T01:34:37.693Z,99007.22
2022-07-27T01:37:05.111Z,99006.44
2022-07-27T01:39:32.288Z,98999.69
2022-07-27T01:41:59.383Z,98999.84
2022-07-27T01:44:26.635Z,99007.59
2022-07-27T01:46:53.795Z,99006.75
2022-07-27T01:49:20.968Z,98992.91
2022-07-27T01:51:48.194Z,98995.66
2022-07-27T01:54:15.489Z,98997.44
2022-07-27T01:56:42.590Z,98990.56
2022-07-27T01:59:16.732Z,98992.38
2022-07-27T02:01:44.978Z,98992.38
2022-07-27T02:04:12.327Z,98987.38
2022-07-27T02:06:39.704Z,98992.66
2022-07-27T02:09:06.941Z,99000.41
2022-07-27T02:11:52.329Z,98998.69
2022-07-27T02:14:21.387Z,99006.75
2022-07-27T02:16:50.714Z,99016.28
2022-07-27T02:19:18.354Z,99009.44
2022-07-27T02:21:45.584Z,99010.41
2022-07-27T02:24:12.716Z,99012.97
2022-07-27T02:26:39.990Z,99013.94
2022-07-27T02:29:07.044Z,99000.19
2022-07-27T02:31:34.129Z,99003.63
2022-07-27T02:34:01.353Z,99009.00
2022-07-27T02:36:31.122Z,99004.56
2022-07-27T02:38:58.330Z,99010.72
2022-07-27T02:41:25.343Z,99008.91
2022-07-27T02:43:52.434Z,99007.31
2022-07-27T02:46:19.567Z,99008.16
2022-07-27T02:48:46.916Z,99010.84
2022-07-27T02:51:15.353Z,99010.84
2022-07-27T02:53:42.544Z,99005.63
2022-07-27T02:56:09.650Z,98995.13
2022-07-27T02:58:37.683Z,99000.34
2022-07-27T03:01:05.673Z,98992.59
2022-07-27T03:03:36.109Z,98999.47
2022-07-27T03:06:06.936Z,98995.19
2022-07-27T03:08:34.693Z,98992.66
2022-07-27T03:11:01.668Z,98989.97
2022-07-27T03:13:29.249Z,98998.63
2022-07-27T03:15:56.739Z,98996.16
2022-07-27T03:18:24.021Z,98995.31
2022-07-27T03:20:50.992Z,98997.00
2022-07-27T03:23:18.679Z,98994.41
2022-07-27T03:25:45.684Z,98990.78
2022-07-27T03:28:12.728Z,98991.72
2022-07-27T03:30:39.867Z,98990.88
2022-07-27T03:33:07.012Z,98985.56
2022-07-27T03:35:34.160Z,98991.78
2022-07-27T03:38:01.404Z,98993.47
2022-07-27T03:40:33.032Z,98997.72
2022-07-27T03:43:00.606Z,98993.47
2022-07-27T03:45:27.718Z,98986.66
2022-07-27T03:47:54.954Z,98989.25
2022-07-27T03:50:22.681Z,98988.31
2022-07-27T03:52:50.173Z,99001.22
2022-07-27T03:55:17.166Z,98992.59
2022-07-27T03:57:44.227Z,98996.09
2022-07-27T04:00:12.854Z,98985.66
2022-07-27T04:02:40.782Z,98988.13
2022-07-27T04:05:08.602Z,98978.53
2022-07-27T04:07:35.836Z,98977.69
2022-07-27T04:10:03.059Z,98982.91
2022-07-27T04:12:30.954Z,98981.94
2022-07-27T04:14:58.865Z,98989.75
2022-07-27T04:17:56.119Z,98988.84
2022-07-27T04:20:13.211Z,98985.56
2022-07-27T04:22:41.794Z,98981.94
2022-07-27T04:25:09.335Z,98982.75
2022-07-27T04:27:36.428Z,98987.91
2022-07-27T04:30:09.215Z,98992.97
2022-07-27T04:32:36.896Z,98988.84
2022-07-27T04:35:04.132Z,98994.91
2022-07-27T04:37:32.531Z,98999.13
2022-07-27T04:39:59.783Z,99000.94
2022-07-27T04:42:26.882Z,98999.19
2022-07-27T04:44:53.911Z,99003.50
2022-07-27T04:47:21.037Z,99002.53
2022-07-27T04:49:48.097Z,99002.53
2022-07-27T04:52:16.215Z,99000.81
2022-07-27T04:54:43.441Z,99010.28
2022-07-27T04:57:10.568Z,99005.88
2022-07-27T04:59:37.735Z,99005.78
2022-07-27T05:02:04.872Z,99008.31
2022-07-27T05:04:31.976Z,99002.31
2022-07-27T05:06:59.122Z,99005.78
2022-07-27T05:09:26.201Z,99013.41
2022-07-27T05:11:53.387Z,99015.84
2022-07-27T05:14:21.478Z,99025.31
2022-07-27T05:16:49.723Z,99017.53
2022-07-27T05:19:16.990Z,99012.38
2022-07-27T05:21:44.152Z,99015.66
2022-07-27T05:24:11.229Z,99006.16
2022-07-27T05:26:38.434Z,99006.97
2022-07-27T05:29:05.452Z,99005.94
2022-07-27T05:31:32.706Z,99006.88
2022-07-27T05:33:59.797Z,99006.03
2022-07-27T05:36:27.881Z,99001.50
2022-07-27T05:38:55.459Z,99010.19
2022-07-27T05:41:26.262Z,99005.84
2022-07-27T05:43:54.708Z,98998.97
2022-07-27T05:46:22.405Z,98999.69
2022-07-27T05:48:49.888Z,99013.53
2022-07-27T05:52:02.202Z,99010.06
2022-07-27T05:54:46.705Z,99011.06
2022-07-27T05:57:25.027Z,99020.34
2022-07-27T06:00:06.142Z,99019.44
2022-07-27T06:02:38.977Z,99024.50
2022-07-27T06:05:15.860Z,99019.13
2022-07-27T06:08:00.152Z,99021.69
2022-07-27T06:10:33.365Z,99020.06
2022-07-27T06:13:05.862Z,99026.78
2022-07-27T06:15:42.268Z,99021.34
2022-07-27T06:18:17.054Z,99022.09
2022-07-27T06:20:53.397Z,99021.94
2022-07-27T06:23:22.892Z,99025.97
2022-07-27T06:25:50.533Z,99011.09
2022-07-27T06:28:20.148Z,99010.81
2022-07-27T06:30:48.026Z,99013.97
2022-07-27T06:33:15.479Z,99015.38
2022-07-27T06:35:46.406Z,99012.53
2022-07-27T06:38:14.817Z,99011.31
2022-07-27T06:40:46.236Z,99005.00
2022-07-27T06:43:19.341Z,99010.00
2022-07-27T06:45:48.583Z,99007.06
2022-07-27T06:48:17.355Z,99011.00
2022-07-27T06:50:47.158Z,99005.47
2022-07-27T06:53:18.995Z,99015.44
2022-07-27T06:55:52.306Z,99023.84
2022-07-27T06:58:20.314Z,99017.50
2022-07-27T07:00:54.915Z,99018.94
2022-07-27T07:03:22.079Z,99012.44
2022-07-27T07:05:49.203Z,99018.06
2022-07-27T07:08:16.440Z,99015.19
2022-07-27T07:10:45.155Z,99023.34
2022-07-27T07:13:12.264Z,99016.16
2022-07-27T07:15:40.698Z,99013.22
2022-07-27T07:18:07.979Z,99010.28
2022-07-27T07:20:35.744Z,99019.41
2022-07-27T07:23:03.987Z,99009.34
2022-07-27T07:25:31.419Z,99010.81
2022-07-27T07:27:58.711Z,99013.88
2022-07-27T07:30:28.444Z,99004.84
2022-07-27T07:33:03.125Z,99004.41
2022-07-27T07:36:12.376Z,99002.22
2022-07-27T07:39:57.518Z,99003.97
2022-07-27T07:43:03.433Z,99000.69
2022-07-27T07:45:35.578Z,98992.97
2022-07-27T07:49:04.755Z,98993.97
2022-07-27T07:52:08.664Z,99004.09
2022-07-27T07:54:38.201Z,98996.34
2022-07-27T07:57:42.676Z,99000.72
2022-07-27T08:00:20.193Z,98994.47
2022-07-27T08:02:48.679Z,99001.34
2022-07-27T08:05:16.076Z,99005.94
2022-07-27T08:07:43.657Z,99005.41
2022-07-27T08:10:12.042Z,99000.34
2022-07-27T08:12:40.681Z,99001.66
2022-07-27T08:15:08.416Z,99002.06
2022-07-27T08:17:35.413Z,98997.31
2022-07-27T08:20:02.642Z,98994.38
2022-07-27T08:22:29.564Z,98993.06
2022-07-27T08:24:56.678Z,98995.28
2022-07-27T08:27:23.731Z,98997.44
2022-07-27T08:29:52.005Z,98985.50
2022-07-27T08:32:19.408Z,98975.75
2022-07-27T08:34:46.761Z,98977.81
2022-07-27T08:37:19.127Z,98968.66
2022-07-27T08:40:39.063Z,98971.00
2022-07-27T08:44:05.560Z,98963.88
2022-07-27T08:46:54.261Z,98954.47
2022-07-27T08:49:55.875Z,98952.81
2022-07-27T08:53:52.225Z,98948.56
2022-07-27T08:56:52.955Z,98941.63
2022-07-27T08:59:43.758Z,98947.56
2022-07-27T09:20:24.942Z,98930.41
2022-07-27T09:30:14.839Z,98917.06
2022-07-27T09:37:16.839Z,98922.97
2022-07-27T09:43:06.617Z,98916.72
2022-07-27T09:46:19.459Z,98915.66
2022-07-27T09:50:10.392Z,98924.00
2022-07-27T09:53:19.682Z,98914.53
2022-07-27T10:00:44.503Z,98912.28
2022-07-27T10:16:58.212Z,98910.72
2022-07-27T10:19:35.056Z,98909.06
2022-07-27T10:22:09.361Z,98900.50
2022-07-27T13:07:50.778Z,98827.19
2022-07-27T13:10:41.079Z,98831.66
2022-07-27T13:13:33.799Z,98830.13
2022-07-27T13:45:05.572Z,98802.75
2022-07-27T13:47:35.009Z,98809.31
2022-07-27T14:07:28.251Z,98808.19
2022-07-27T14:45:20.532Z,98789.75
2022-07-27T14:47:48.555Z,98783.91
2022-07-27T14:50:15.935Z,98791.28
2022-07-27T14:52:46.486Z,98792.00
2022-07-27T14:55:15.318Z,98784.47
2022-07-27T14:58:14.526Z,98788.19
2022-07-27T15:00:47.184Z,98785.25
2022-07-27T15:24:11.590Z,98800.22
2022-07-27T15:34:05.859Z,98796.69
2022-07-27T15:44:00.547Z,98783.09
2022-07-27T15:46:29.305Z,98790.09
2022-07-27T15:48:59.684Z,98786.19
2022-07-27T15:51:26.981Z,98782.84
2022-07-27T15:54:11.157Z,98782.84
2022-07-27T15:56:48.948Z,98787.59
2022-07-27T15:59:25.656Z,98786.75
2022-07-27T16:01:56.079Z,98786.16
2022-07-27T16:04:27.523Z,98783.66
2022-07-27T16:07:07.161Z,98786.28
2022-07-27T16:09:49.060Z,98792.56
2022-07-27T16:12:33.764Z,98792.97
2022-07-27T16:15:24.527Z,98796.84
2022-07-27T16:17:56.743Z,98796.44
2022-07-27T16:30:34.026Z,98790.94
2022-07-27T16:46:58.622Z,98790.22
2022-07-27T16:52:47.852Z,98794.69
2022-07-27T16:55:19.643Z,98802.50
2022-07-27T16:57:49.772Z,98807.38
2022-07-27T17:00:18.368Z,98815.31
2022-07-27T17:02:47.668Z,98811.16
2022-07-27T17:05:19.606Z,98811.97
2022-07-27T17:07:52.573Z,98808.84
2022-07-27T17:10:27.219Z,98808.16
2022-07-27T17:13:13.479Z,98812.47
2022-07-27T17:15:41.116Z,98810.94
2022-07-27T17:18:11.470Z,98810.81
2022-07-27T17:20:46.139Z,98812.75
2022-07-27T17:23:41.369Z,98816.63
2022-07-27T17:26:31.726Z,98806.25
2022-07-27T17:29:02.552Z,98808.06
2022-07-27T17:31:37.158Z,98807.22
2022-07-27T17:34:08.584Z,98802.78
2022-07-27T17:36:42.325Z,98810.97
2022-07-27T17:40:35.290Z,98819.03
2022-07-27T17:42:25.840Z,98818.69
2022-07-27T17:44:55.591Z,98826.34
2022-07-27T17:47:23.032Z,98818.09
2022-07-27T17:49:53.384Z,98806.69
2022-07-27T17:53:06.844Z,98825.56
2022-07-27T17:55:41.483Z,98834.84
2022-07-27T17:58:13.578Z,98840.38
2022-07-27T18:00:46.313Z,98840.50
2022-07-27T18:03:28.917Z,98844.38
2022-07-27T18:06:35.151Z,98859.88
2022-07-27T18:16:42.060Z,98909.50
2022-07-27T18:19:09.510Z,98915.00
2022-07-27T18:21:36.749Z,98935.78
2022-07-27T18:24:04.427Z,98966.16
2022-07-27T18:26:31.685Z,98961.97
2022-07-27T18:28:58.695Z,98978.28
2022-07-27T18:31:25.972Z,98976.69
2022-07-27T18:33:54.601Z,99000.69
2022-07-27T18:36:21.848Z,98999.38
2022-07-27T18:38:57.964Z,99008.69
2022-07-27T18:41:40.256Z,99005.75
2022-07-27T18:57:24.933Z,99059.28
2022-07-27T18:59:53.730Z,99062.97
2022-07-27T19:02:21.003Z,99072.09
2022-07-27T19:04:58.133Z,99073.34
2022-07-27T19:07:37.492Z,99065.63
2022-07-27T19:10:17.320Z,99075.16
2022-07-27T19:12:47.589Z,99067.47
2022-07-27T19:15:25.245Z,99079.16
2022-07-27T19:20:46.180Z,99067.47
2022-07-27T19:23:15.504Z,99077.50
2022-07-27T19:25:43.723Z,99073.38
2022-07-27T19:28:11.356Z,99084.88
2022-07-27T19:30:42.044Z,99072.03
2022-07-27T19:33:12.900Z,99070.47
2022-07-27T19:35:40.156Z,99067.28
2022-07-27T19:38:17.141Z,99078.88
2022-07-27T19:40:50.155Z,99082.88
2022-07-27T19:43:25.412Z,99083.84
2022-07-27T19:45:55.345Z,99096.50
2022-07-27T19:48:35.130Z,99088.75
2022-07-27T19:51:12.961Z,99095.38
2022-07-27T19:54:22.230Z,99090.22
2022-07-27T20:00:31.796Z,99082.41
2022-07-27T20:06:56.712Z,99082.06
2022-07-27T20:09:39.404Z,99076.28
2022-07-27T20:12:10.077Z,99085.13
2022-07-27T20:14:38.027Z,99080.91
2022-07-27T20:17:06.312Z,99082.78
2022-07-27T20:19:33.773Z,99089.13
2022-07-27T20:22:01.286Z,99085.63
2022-07-27T20:24:28.741Z,99086.81
2022-07-27T20:26:56.869Z,99077.41
2022-07-27T20:29:24.342Z,99084.47
2022-07-27T20:31:55.315Z,99078.56
2022-07-27T20:34:23.645Z,99082.16
2022-07-27T20:36:54.181Z,99072.75
2022-07-27T20:39:21.651Z,99079.06
2022-07-27T20:41:49.058Z,99068.81
2022-07-27T20:44:16.142Z,99077.75
2022-07-27T20:46:43.647Z,99085.63
2022-07-27T20:49:11.150Z,99076.38
2022-07-27T20:51:43.903Z,99086.13
2022-07-27T20:54:11.130Z,99084.88
2022-07-27T20:56:38.220Z,99092.56
2022-07-27T20:59:07.571Z,99094.53
2022-07-27T21:01:43.701Z,99087.16
2022-07-27T21:04:10.926Z,99091.66
2022-07-27T21:06:38.134Z,99094.38
2022-07-27T21:09:05.264Z,99101.41
2022-07-27T21:11:32.683Z,99092.03
2022-07-27T21:13:59.751Z,99097.41
2022-07-27T21:16:27.095Z,99097.50
2022-07-27T21:18:54.251Z,99092.63
2022-07-27T21:21:25.574Z,99093.59
2022-07-27T21:24:13.323Z,99093.34
2022-07-27T21:26:43.622Z,99098.13
2022-07-27T21:29:11.727Z,99111.06
2022-07-27T21:31:39.392Z,99107.59
2022-07-27T21:34:07.337Z,99106.75
2022-07-27T21:36:34.852Z,99109.50
2022-07-27T21:39:02.054Z,99098.41
2022-07-27T21:41:29.172Z,99102.81
2022-07-27T21:43:56.360Z,99110.81
2022-07-27T21:46:24.068Z,99113.53
2022-07-27T21:57:10.101Z,99113.31
2022-07-27T21:59:37.300Z,99111.34
2022-07-27T22:02:04.373Z,99118.19
2022-07-27T22:04:31.588Z,99104.59
2022-07-27T22:06:58.689Z,99101.22
2022-07-27T22:09:25.791Z,99112.59
2022-07-27T22:11:52.893Z,99110.13
2022-07-27T22:14:23.515Z,99109.47
2022-07-27T22:16:50.704Z,99112.94
2022-07-27T22:19:18.100Z,99110.50
2022-07-27T22:21:45.213Z,99109.94
2022-07-27T22:24:12.550Z,99106.47
2022-07-27T22:26:40.232Z,99111.06
2022-07-27T22:29:07.413Z,99115.66
2022-07-27T22:31:34.491Z,99123.53
2022-07-27T22:34:01.710Z,99126.44
2022-07-27T22:36:28.720Z,99123.91
2022-07-27T22:38:56.093Z,99121.56
2022-07-27T22:41:23.364Z,99119.09
2022-07-27T22:43:50.558Z,99116.66
2022-07-27T22:46:19.900Z,99122.88
2022-07-27T22:48:50.913Z,99118.81
2022-07-27T22:51:18.023Z,99125.81
2022-07-27T22:53:45.150Z,99122.63
2022-07-27T22:56:12.328Z,99126.25
2022-07-27T22:58:39.453Z,99128.31
2022-07-27T23:01:06.557Z,99131.13
2022-07-27T23:03:53.725Z,99123.53
2022-07-27T23:06:21.090Z,99123.53
2022-07-27T23:08:49.923Z,99127.16
2022-07-27T23:11:19.353Z,99121.91
2022-07-27T23:13:47.534Z,99117.88
2022-07-27T23:16:14.963Z,99115.53
2022-07-27T23:18:42.219Z,99111.19
2022-07-27T23:21:09.456Z,99121.09
2022-07-27T23:23:41.032Z,99118.47
2022-07-27T23:26:25.865Z,99112.84
2022-07-27T23:28:54.080Z,99117.91
2022-07-27T23:31:22.007Z,99112.94
2022-07-27T23:33:49.396Z,99102.72
2022-07-27T23:36:16.806Z,99113.19
2022-07-27T23:38:43.972Z,99108.28
2022-07-27T23:41:10.998Z,99114.56
2022-07-27T23:43:38.149Z,99110.34
2022-07-27T23:46:07.257Z,99115.75
2022-07-27T23:48:34.558Z,99113.22
2022-07-27T23:51:01.688Z,99116.94
2022-07-27T23:53:28.831Z,99113.50
2022-07-27T23:55:55.955Z,99116.31
2022-07-27T23:58:23.077Z,99113.03
